sensor_id;sensor_type;location;lat;lon;timestamp;temperature;humidity
40085;DHT22;25786;51.504;7.344;2023-01-19T00:01:18;2.00;83.60
40085;DHT22;25786;51.504;7.344;2023-01-19T00:03:43;2.00;83.50
40085;DHT22;25786;51.504;7.344;2023-01-19T00:06:09;1.90;83.60
40085;DHT22;25786;51.504;7.344;2023-01-19T00:08:35;1.90;83.70
40085;DHT22;25786;51.504;7.344;2023-01-19T00:11:00;1.90;83.80
40085;DHT22;25786;51.504;7.344;2023-01-19T00:13:26;1.90;83.70
40085;DHT22;25786;51.504;7.344;2023-01-19T00:15:52;1.90;83.80
40085;DHT22;25786;51.504;7.344;2023-01-19T00:18:17;2.00;83.60
40085;DHT22;25786;51.504;7.344;2023-01-19T00:20:46;1.90;83.70
40085;DHT22;25786;51.504;7.344;2023-01-19T00:23:12;1.90;83.70
40085;DHT22;25786;51.504;7.344;2023-01-19T00:25:38;1.80;84.00
40085;DHT22;25786;51.504;7.344;2023-01-19T00:28:10;2.00;84.20
40085;DHT22;25786;51.504;7.344;2023-01-19T00:30:36;2.00;84.00
40085;DHT22;25786;51.504;7.344;2023-01-19T00:33:02;2.00;84.00
40085;DHT22;25786;51.504;7.344;2023-01-19T00:35:27;2.00;83.90
40085;DHT22;25786;51.504;7.344;2023-01-19T00:37:54;1.90;83.90
40085;DHT22;25786;51.504;7.344;2023-01-19T00:40:20;1.90;84.10
40085;DHT22;25786;51.504;7.344;2023-01-19T00:42:46;2.00;84.10
40085;DHT22;25786;51.504;7.344;2023-01-19T00:45:13;2.00;84.00
40085;DHT22;25786;51.504;7.344;2023-01-19T00:47:39;1.90;84.10
40085;DHT22;25786;51.504;7.344;2023-01-19T00:50:05;1.80;84.20
40085;DHT22;25786;51.504;7.344;2023-01-19T00:52:31;1.90;84.30
40085;DHT22;25786;51.504;7.344;2023-01-19T00:54:56;1.90;84.40
40085;DHT22;25786;51.504;7.344;2023-01-19T00:57:22;2.00;84.30
40085;DHT22;25786;51.504;7.344;2023-01-19T00:59:47;2.10;84.20
40085;DHT22;25786;51.504;7.344;2023-01-19T01:02:13;2.10;83.90
40085;DHT22;25786;51.504;7.344;2023-01-19T01:04:38;2.20;83.90
40085;DHT22;25786;51.504;7.344;2023-01-19T01:07:04;2.20;83.80
40085;DHT22;25786;51.504;7.344;2023-01-19T01:09:29;2.30;83.60
40085;DHT22;25786;51.504;7.344;2023-01-19T01:11:55;2.20;83.70
40085;DHT22;25786;51.504;7.344;2023-01-19T01:14:21;2.10;83.80
40085;DHT22;25786;51.504;7.344;2023-01-19T01:16:46;2.10;83.70
40085;DHT22;25786;51.504;7.344;2023-01-19T01:19:12;2.10;83.90
40085;DHT22;25786;51.504;7.344;2023-01-19T01:21:37;2.20;83.80
40085;DHT22;25786;51.504;7.344;2023-01-19T01:24:03;2.20;83.70
40085;DHT22;25786;51.504;7.344;2023-01-19T01:26:28;2.20;83.30
40085;DHT22;25786;51.504;7.344;2023-01-19T01:28:54;2.20;83.70
40085;DHT22;25786;51.504;7.344;2023-01-19T01:31:19;2.30;83.90
40085;DHT22;25786;51.504;7.344;2023-01-19T01:33:45;2.30;83.60
40085;DHT22;25786;51.504;7.344;2023-01-19T01:36:10;2.30;83.60
40085;DHT22;25786;51.504;7.344;2023-01-19T01:38:36;2.30;83.50
40085;DHT22;25786;51.504;7.344;2023-01-19T01:41:02;2.40;83.00
40085;DHT22;25786;51.504;7.344;2023-01-19T01:43:44;2.40;83.50
40085;DHT22;25786;51.504;7.344;2023-01-19T01:46:10;2.40;83.00
40085;DHT22;25786;51.504;7.344;2023-01-19T01:48:36;2.40;83.30
40085;DHT22;25786;51.504;7.344;2023-01-19T01:51:08;2.40;83.50
40085;DHT22;25786;51.504;7.344;2023-01-19T01:56:24;2.40;83.20
40085;DHT22;25786;51.504;7.344;2023-01-19T01:58:52;2.50;83.30
40085;DHT22;25786;51.504;7.344;2023-01-19T02:01:17;2.40;83.40
40085;DHT22;25786;51.504;7.344;2023-01-19T02:04:06;2.50;83.50
40085;DHT22;25786;51.504;7.344;2023-01-19T02:06:32;2.40;83.30
40085;DHT22;25786;51.504;7.344;2023-01-19T02:11:42;2.40;83.30
40085;DHT22;25786;51.504;7.344;2023-01-19T02:14:26;2.30;83.20
40085;DHT22;25786;51.504;7.344;2023-01-19T02:16:52;2.30;83.60
40085;DHT22;25786;51.504;7.344;2023-01-19T02:19:25;2.40;83.60
40085;DHT22;25786;51.504;7.344;2023-01-19T02:24:17;2.40;83.60
40085;DHT22;25786;51.504;7.344;2023-01-19T02:26:45;2.30;83.70
40085;DHT22;25786;51.504;7.344;2023-01-19T02:29:12;2.30;83.70
40085;DHT22;25786;51.504;7.344;2023-01-19T02:31:39;2.20;83.70
40085;DHT22;25786;51.504;7.344;2023-01-19T02:34:08;2.20;83.70
40085;DHT22;25786;51.504;7.344;2023-01-19T02:36:35;2.30;83.90
40085;DHT22;25786;51.504;7.344;2023-01-19T02:39:01;2.30;83.60
40085;DHT22;25786;51.504;7.344;2023-01-19T02:41:28;2.30;83.40
40085;DHT22;25786;51.504;7.344;2023-01-19T02:43:56;2.30;83.60
40085;DHT22;25786;51.504;7.344;2023-01-19T02:46:22;2.30;83.50
40085;DHT22;25786;51.504;7.344;2023-01-19T02:48:47;2.30;83.30
40085;DHT22;25786;51.504;7.344;2023-01-19T02:51:14;2.40;83.30
40085;DHT22;25786;51.504;7.344;2023-01-19T03:01:22;2.40;83.20
40085;DHT22;25786;51.504;7.344;2023-01-19T03:11:11;2.40;83.20
40085;DHT22;25786;51.504;7.344;2023-01-19T03:18:37;2.20;83.40
40085;DHT22;25786;51.504;7.344;2023-01-19T03:21:05;2.20;83.60
40085;DHT22;25786;51.504;7.344;2023-01-19T03:23:31;2.20;83.60
40085;DHT22;25786;51.504;7.344;2023-01-19T03:25:59;2.20;83.60
40085;DHT22;25786;51.504;7.344;2023-01-19T03:28:26;2.20;83.40
40085;DHT22;25786;51.504;7.344;2023-01-19T03:30:55;2.30;83.50
40085;DHT22;25786;51.504;7.344;2023-01-19T03:33:24;2.30;83.00
40085;DHT22;25786;51.504;7.344;2023-01-19T03:35:53;2.30;83.20
40085;DHT22;25786;51.504;7.344;2023-01-19T03:38:23;2.30;83.30
40085;DHT22;25786;51.504;7.344;2023-01-19T03:40:49;2.30;83.50
40085;DHT22;25786;51.504;7.344;2023-01-19T03:43:16;2.30;83.40
40085;DHT22;25786;51.504;7.344;2023-01-19T03:45:42;2.30;83.00
40085;DHT22;25786;51.504;7.344;2023-01-19T03:48:08;2.30;82.90
40085;DHT22;25786;51.504;7.344;2023-01-19T03:50:33;2.40;82.80
40085;DHT22;25786;51.504;7.344;2023-01-19T03:53:07;2.40;82.80
40085;DHT22;25786;51.504;7.344;2023-01-19T03:55:33;2.30;82.90
40085;DHT22;25786;51.504;7.344;2023-01-19T03:57:59;2.40;82.90
40085;DHT22;25786;51.504;7.344;2023-01-19T04:00:24;2.30;83.00
40085;DHT22;25786;51.504;7.344;2023-01-19T04:02:50;2.30;83.20
40085;DHT22;25786;51.504;7.344;2023-01-19T04:05:15;2.40;83.00
40085;DHT22;25786;51.504;7.344;2023-01-19T04:07:41;2.50;82.80
40085;DHT22;25786;51.504;7.344;2023-01-19T04:10:07;2.50;82.60
40085;DHT22;25786;51.504;7.344;2023-01-19T04:12:37;2.50;82.80
40085;DHT22;25786;51.504;7.344;2023-01-19T04:15:03;2.50;82.90
40085;DHT22;25786;51.504;7.344;2023-01-19T04:17:30;2.50;83.00
40085;DHT22;25786;51.504;7.344;2023-01-19T04:19:55;2.50;83.10
40085;DHT22;25786;51.504;7.344;2023-01-19T04:22:20;2.50;83.10
40085;DHT22;25786;51.504;7.344;2023-01-19T04:24:46;2.40;83.20
40085;DHT22;25786;51.504;7.344;2023-01-19T04:27:11;2.50;83.40
40085;DHT22;25786;51.504;7.344;2023-01-19T04:29:39;2.50;83.60
40085;DHT22;25786;51.504;7.344;2023-01-19T04:32:04;2.50;83.20
40085;DHT22;25786;51.504;7.344;2023-01-19T04:34:30;2.50;83.60
40085;DHT22;25786;51.504;7.344;2023-01-19T04:36:55;2.50;83.70
40085;DHT22;25786;51.504;7.344;2023-01-19T04:39:20;2.50;83.80
40085;DHT22;25786;51.504;7.344;2023-01-19T04:41:47;2.50;83.80
40085;DHT22;25786;51.504;7.344;2023-01-19T04:44:12;2.40;84.50
40085;DHT22;25786;51.504;7.344;2023-01-19T04:46:38;2.40;85.10
40085;DHT22;25786;51.504;7.344;2023-01-19T04:49:04;2.20;86.10
40085;DHT22;25786;51.504;7.344;2023-01-19T04:51:29;2.10;86.80
40085;DHT22;25786;51.504;7.344;2023-01-19T04:53:55;1.90;87.40
40085;DHT22;25786;51.504;7.344;2023-01-19T04:56:22;1.80;87.70
40085;DHT22;25786;51.504;7.344;2023-01-19T04:58:50;1.70;88.10
40085;DHT22;25786;51.504;7.344;2023-01-19T05:01:15;1.60;88.80
40085;DHT22;25786;51.504;7.344;2023-01-19T05:03:41;1.60;89.30
40085;DHT22;25786;51.504;7.344;2023-01-19T05:06:07;1.60;89.50
40085;DHT22;25786;51.504;7.344;2023-01-19T05:08:32;1.50;89.70
40085;DHT22;25786;51.504;7.344;2023-01-19T05:10:58;1.50;90.00
40085;DHT22;25786;51.504;7.344;2023-01-19T05:13:23;1.40;90.20
40085;DHT22;25786;51.504;7.344;2023-01-19T05:15:49;1.40;90.30
40085;DHT22;25786;51.504;7.344;2023-01-19T05:18:14;1.40;90.60
40085;DHT22;25786;51.504;7.344;2023-01-19T05:20:40;1.40;90.70
40085;DHT22;25786;51.504;7.344;2023-01-19T05:23:05;1.30;90.80
40085;DHT22;25786;51.504;7.344;2023-01-19T05:25:31;1.40;90.80
40085;DHT22;25786;51.504;7.344;2023-01-19T05:27:56;1.40;90.70
40085;DHT22;25786;51.504;7.344;2023-01-19T05:30:22;1.30;90.90
40085;DHT22;25786;51.504;7.344;2023-01-19T05:32:47;1.30;91.10
40085;DHT22;25786;51.504;7.344;2023-01-19T05:35:13;1.30;91.10
40085;DHT22;25786;51.504;7.344;2023-01-19T05:37:39;1.30;91.10
40085;DHT22;25786;51.504;7.344;2023-01-19T05:40:05;1.40;91.20
40085;DHT22;25786;51.504;7.344;2023-01-19T05:42:31;1.40;91.10
40085;DHT22;25786;51.504;7.344;2023-01-19T05:44:56;1.40;91.10
40085;DHT22;25786;51.504;7.344;2023-01-19T05:47:23;1.40;91.30
40085;DHT22;25786;51.504;7.344;2023-01-19T05:49:49;1.40;91.30
40085;DHT22;25786;51.504;7.344;2023-01-19T05:52:14;1.40;91.20
40085;DHT22;25786;51.504;7.344;2023-01-19T05:54:40;1.50;91.10
40085;DHT22;25786;51.504;7.344;2023-01-19T05:57:05;1.40;91.20
40085;DHT22;25786;51.504;7.344;2023-01-19T05:59:31;1.30;91.20
40085;DHT22;25786;51.504;7.344;2023-01-19T06:01:56;1.40;91.40
40085;DHT22;25786;51.504;7.344;2023-01-19T06:04:24;1.40;91.40
40085;DHT22;25786;51.504;7.344;2023-01-19T06:06:49;1.30;91.30
40085;DHT22;25786;51.504;7.344;2023-01-19T06:09:15;1.30;91.40
40085;DHT22;25786;51.504;7.344;2023-01-19T06:11:42;1.30;91.40
40085;DHT22;25786;51.504;7.344;2023-01-19T06:14:08;1.30;91.30
40085;DHT22;25786;51.504;7.344;2023-01-19T06:16:33;1.30;91.50
40085;DHT22;25786;51.504;7.344;2023-01-19T06:18:59;1.30;91.50
40085;DHT22;25786;51.504;7.344;2023-01-19T06:21:24;1.30;91.50
40085;DHT22;25786;51.504;7.344;2023-01-19T06:23:50;1.30;91.50
40085;DHT22;25786;51.504;7.344;2023-01-19T06:26:15;1.30;91.50
40085;DHT22;25786;51.504;7.344;2023-01-19T06:28:41;1.30;91.60
40085;DHT22;25786;51.504;7.344;2023-01-19T06:31:06;1.30;91.70
40085;DHT22;25786;51.504;7.344;2023-01-19T06:33:32;1.30;91.60
40085;DHT22;25786;51.504;7.344;2023-01-19T06:35:57;1.30;91.60
40085;DHT22;25786;51.504;7.344;2023-01-19T06:38:23;1.40;91.70
40085;DHT22;25786;51.504;7.344;2023-01-19T06:40:54;1.40;91.70
40085;DHT22;25786;51.504;7.344;2023-01-19T06:43:20;1.40;91.60
40085;DHT22;25786;51.504;7.344;2023-01-19T06:45:45;1.30;91.50
40085;DHT22;25786;51.504;7.344;2023-01-19T06:48:11;1.40;91.50
40085;DHT22;25786;51.504;7.344;2023-01-19T06:50:37;1.40;91.50
40085;DHT22;25786;51.504;7.344;2023-01-19T06:53:02;1.50;91.40
40085;DHT22;25786;51.504;7.344;2023-01-19T06:55:28;1.50;91.40
40085;DHT22;25786;51.504;7.344;2023-01-19T06:57:59;1.40;91.40
40085;DHT22;25786;51.504;7.344;2023-01-19T07:00:25;1.50;91.30
40085;DHT22;25786;51.504;7.344;2023-01-19T07:02:51;1.30;91.20
40085;DHT22;25786;51.504;7.344;2023-01-19T07:05:16;1.30;91.60
40085;DHT22;25786;51.504;7.344;2023-01-19T07:07:41;1.30;91.60
40085;DHT22;25786;51.504;7.344;2023-01-19T07:10:09;1.30;91.60
40085;DHT22;25786;51.504;7.344;2023-01-19T07:12:36;1.40;91.90
40085;DHT22;25786;51.504;7.344;2023-01-19T07:15:02;1.30;91.80
40085;DHT22;25786;51.504;7.344;2023-01-19T07:17:27;1.50;92.00
40085;DHT22;25786;51.504;7.344;2023-01-19T07:19:53;1.50;91.80
40085;DHT22;25786;51.504;7.344;2023-01-19T07:22:18;1.30;91.60
40085;DHT22;25786;51.504;7.344;2023-01-19T07:24:44;1.40;91.70
40085;DHT22;25786;51.504;7.344;2023-01-19T07:27:09;1.40;91.80
40085;DHT22;25786;51.504;7.344;2023-01-19T07:29:36;1.50;91.90
40085;DHT22;25786;51.504;7.344;2023-01-19T07:32:01;1.50;91.70
40085;DHT22;25786;51.504;7.344;2023-01-19T07:34:27;1.60;91.60
40085;DHT22;25786;51.504;7.344;2023-01-19T07:36:54;1.60;91.40
40085;DHT22;25786;51.504;7.344;2023-01-19T07:39:19;1.60;91.30
40085;DHT22;25786;51.504;7.344;2023-01-19T07:41:46;1.60;91.40
40085;DHT22;25786;51.504;7.344;2023-01-19T07:44:12;1.60;91.60
40085;DHT22;25786;51.504;7.344;2023-01-19T07:46:37;1.60;91.40
40085;DHT22;25786;51.504;7.344;2023-01-19T07:49:03;1.70;91.50
40085;DHT22;25786;51.504;7.344;2023-01-19T07:51:28;1.70;91.20
40085;DHT22;25786;51.504;7.344;2023-01-19T07:53:54;1.70;91.10
40085;DHT22;25786;51.504;7.344;2023-01-19T07:56:19;1.60;91.10
40085;DHT22;25786;51.504;7.344;2023-01-19T07:58:46;1.70;91.00
40085;DHT22;25786;51.504;7.344;2023-01-19T08:01:14;1.70;91.10
40085;DHT22;25786;51.504;7.344;2023-01-19T08:03:39;1.70;91.10
40085;DHT22;25786;51.504;7.344;2023-01-19T08:06:05;1.70;91.10
40085;DHT22;25786;51.504;7.344;2023-01-19T08:08:31;1.70;91.00
40085;DHT22;25786;51.504;7.344;2023-01-19T08:10:57;1.70;91.00
40085;DHT22;25786;51.504;7.344;2023-01-19T08:13:23;1.70;91.20
40085;DHT22;25786;51.504;7.344;2023-01-19T08:15:49;1.80;91.30
40085;DHT22;25786;51.504;7.344;2023-01-19T08:18:15;1.70;91.10
40085;DHT22;25786;51.504;7.344;2023-01-19T08:20:41;1.80;91.10
40085;DHT22;25786;51.504;7.344;2023-01-19T08:23:06;1.80;91.00
40085;DHT22;25786;51.504;7.344;2023-01-19T08:25:33;1.80;91.00
40085;DHT22;25786;51.504;7.344;2023-01-19T08:27:59;1.80;91.00
40085;DHT22;25786;51.504;7.344;2023-01-19T08:30:24;1.80;90.90
40085;DHT22;25786;51.504;7.344;2023-01-19T08:32:51;1.80;90.80
40085;DHT22;25786;51.504;7.344;2023-01-19T08:35:17;1.90;90.90
40085;DHT22;25786;51.504;7.344;2023-01-19T08:37:42;1.90;90.80
40085;DHT22;25786;51.504;7.344;2023-01-19T08:40:08;1.90;90.80
40085;DHT22;25786;51.504;7.344;2023-01-19T08:42:33;1.90;90.80
40085;DHT22;25786;51.504;7.344;2023-01-19T08:44:59;2.00;90.70
40085;DHT22;25786;51.504;7.344;2023-01-19T08:47:24;2.00;90.90
40085;DHT22;25786;51.504;7.344;2023-01-19T08:49:50;2.00;90.70
40085;DHT22;25786;51.504;7.344;2023-01-19T08:52:15;2.00;90.70
40085;DHT22;25786;51.504;7.344;2023-01-19T08:54:41;2.00;90.80
40085;DHT22;25786;51.504;7.344;2023-01-19T08:57:06;2.10;90.90
40085;DHT22;25786;51.504;7.344;2023-01-19T08:59:31;2.10;90.70
40085;DHT22;25786;51.504;7.344;2023-01-19T09:01:57;2.00;90.70
40085;DHT22;25786;51.504;7.344;2023-01-19T09:04:22;2.10;90.70
40085;DHT22;25786;51.504;7.344;2023-01-19T09:06:48;2.00;90.70
40085;DHT22;25786;51.504;7.344;2023-01-19T09:09:14;2.00;90.80
40085;DHT22;25786;51.504;7.344;2023-01-19T09:11:39;2.10;90.90
40085;DHT22;25786;51.504;7.344;2023-01-19T09:14:05;2.10;90.80
40085;DHT22;25786;51.504;7.344;2023-01-19T09:16:31;2.10;90.80
40085;DHT22;25786;51.504;7.344;2023-01-19T09:18:56;2.10;90.60
40085;DHT22;25786;51.504;7.344;2023-01-19T09:21:22;2.20;90.70
40085;DHT22;25786;51.504;7.344;2023-01-19T09:23:48;2.20;90.70
40085;DHT22;25786;51.504;7.344;2023-01-19T09:26:16;2.10;90.60
40085;DHT22;25786;51.504;7.344;2023-01-19T09:28:41;2.20;90.60
40085;DHT22;25786;51.504;7.344;2023-01-19T09:31:07;2.20;90.70
40085;DHT22;25786;51.504;7.344;2023-01-19T09:33:33;2.20;90.60
40085;DHT22;25786;51.504;7.344;2023-01-19T09:35:58;2.30;90.70
40085;DHT22;25786;51.504;7.344;2023-01-19T09:38:24;2.30;90.60
40085;DHT22;25786;51.504;7.344;2023-01-19T09:40:52;2.40;90.70
40085;DHT22;25786;51.504;7.344;2023-01-19T09:45:56;2.30;90.30
40085;DHT22;25786;51.504;7.344;2023-01-19T09:50:55;2.40;90.60
40085;DHT22;25786;51.504;7.344;2023-01-19T09:53:33;2.40;90.50
40085;DHT22;25786;51.504;7.344;2023-01-19T09:56:00;2.40;90.50
40085;DHT22;25786;51.504;7.344;2023-01-19T09:58:26;2.30;90.40
40085;DHT22;25786;51.504;7.344;2023-01-19T10:00:53;2.40;90.70
40085;DHT22;25786;51.504;7.344;2023-01-19T10:03:19;2.30;90.50
40085;DHT22;25786;51.504;7.344;2023-01-19T10:08:17;2.30;90.60
40085;DHT22;25786;51.504;7.344;2023-01-19T10:10:46;2.40;90.70
40085;DHT22;25786;51.504;7.344;2023-01-19T10:13:22;2.40;90.80
40085;DHT22;25786;51.504;7.344;2023-01-19T10:18:27;2.50;90.80
40085;DHT22;25786;51.504;7.344;2023-01-19T10:23:44;2.40;90.50
40085;DHT22;25786;51.504;7.344;2023-01-19T10:26:12;2.30;90.70
40085;DHT22;25786;51.504;7.344;2023-01-19T10:28:38;2.40;90.80
40085;DHT22;25786;51.504;7.344;2023-01-19T10:31:04;2.50;91.00
40085;DHT22;25786;51.504;7.344;2023-01-19T10:33:31;2.50;90.60
40085;DHT22;25786;51.504;7.344;2023-01-19T10:35:57;2.50;90.80
40085;DHT22;25786;51.504;7.344;2023-01-19T10:38:22;2.60;90.50
40085;DHT22;25786;51.504;7.344;2023-01-19T10:40:56;2.50;90.30
40085;DHT22;25786;51.504;7.344;2023-01-19T10:43:36;2.60;90.30
40085;DHT22;25786;51.504;7.344;2023-01-19T10:46:06;2.60;90.30
40085;DHT22;25786;51.504;7.344;2023-01-19T10:48:35;2.60;90.50
40085;DHT22;25786;51.504;7.344;2023-01-19T10:51:01;2.60;90.60
40085;DHT22;25786;51.504;7.344;2023-01-19T10:53:27;2.60;90.40
40085;DHT22;25786;51.504;7.344;2023-01-19T10:58:53;2.60;90.10
40085;DHT22;25786;51.504;7.344;2023-01-19T11:01:23;2.60;90.30
40085;DHT22;25786;51.504;7.344;2023-01-19T11:03:49;2.60;90.10
40085;DHT22;25786;51.504;7.344;2023-01-19T11:08:40;2.60;90.10
40085;DHT22;25786;51.504;7.344;2023-01-19T11:11:06;2.60;90.10
40085;DHT22;25786;51.504;7.344;2023-01-19T11:13:33;2.70;90.00
40085;DHT22;25786;51.504;7.344;2023-01-19T11:16:23;2.80;89.90
40085;DHT22;25786;51.504;7.344;2023-01-19T11:18:45;2.80;89.80
40085;DHT22;25786;51.504;7.344;2023-01-19T11:21:11;2.80;90.20
40085;DHT22;25786;51.504;7.344;2023-01-19T11:28:52;2.90;89.90
40085;DHT22;25786;51.504;7.344;2023-01-19T11:31:28;2.90;89.70
40085;DHT22;25786;51.504;7.344;2023-01-19T11:33:56;2.90;89.90
40085;DHT22;25786;51.504;7.344;2023-01-19T11:38:49;2.90;89.80
40085;DHT22;25786;51.504;7.344;2023-01-19T11:41:28;2.90;89.60
40085;DHT22;25786;51.504;7.344;2023-01-19T11:46:43;3.00;89.90
40085;DHT22;25786;51.504;7.344;2023-01-19T11:49:25;3.00;89.40
40085;DHT22;25786;51.504;7.344;2023-01-19T11:51:57;2.90;89.40
40085;DHT22;25786;51.504;7.344;2023-01-19T11:57:15;2.90;89.50
40085;DHT22;25786;51.504;7.344;2023-01-19T11:59:44;2.90;89.40
40085;DHT22;25786;51.504;7.344;2023-01-19T12:02:13;2.90;89.70
40085;DHT22;25786;51.504;7.344;2023-01-19T12:04:41;3.00;89.40
40085;DHT22;25786;51.504;7.344;2023-01-19T12:07:08;3.00;89.30
40085;DHT22;25786;51.504;7.344;2023-01-19T12:09:44;3.00;89.30
40085;DHT22;25786;51.504;7.344;2023-01-19T12:12:16;2.90;89.20
40085;DHT22;25786;51.504;7.344;2023-01-19T12:14:56;3.00;89.20
40085;DHT22;25786;51.504;7.344;2023-01-19T12:17:26;3.00;89.30
40085;DHT22;25786;51.504;7.344;2023-01-19T12:19:59;3.00;89.20
40085;DHT22;25786;51.504;7.344;2023-01-19T12:22:25;3.00;89.30
40085;DHT22;25786;51.504;7.344;2023-01-19T12:27:24;2.90;89.50
40085;DHT22;25786;51.504;7.344;2023-01-19T12:29:50;2.90;89.50
40085;DHT22;25786;51.504;7.344;2023-01-19T12:32:18;2.80;89.70
40085;DHT22;25786;51.504;7.344;2023-01-19T12:34:47;2.90;89.90
40085;DHT22;25786;51.504;7.344;2023-01-19T12:40:02;2.80;89.60
40085;DHT22;25786;51.504;7.344;2023-01-19T12:42:28;2.90;89.60
40085;DHT22;25786;51.504;7.344;2023-01-19T12:45:36;2.90;89.70
40085;DHT22;25786;51.504;7.344;2023-01-19T12:47:49;2.90;89.50
40085;DHT22;25786;51.504;7.344;2023-01-19T12:50:16;3.00;89.70
40085;DHT22;25786;51.504;7.344;2023-01-19T12:52:47;2.90;89.50
40085;DHT22;25786;51.504;7.344;2023-01-19T12:55:19;3.00;89.50
40085;DHT22;25786;51.504;7.344;2023-01-19T12:57:48;2.90;89.50
40085;DHT22;25786;51.504;7.344;2023-01-19T13:02:47;3.00;89.80
40085;DHT22;25786;51.504;7.344;2023-01-19T13:05:15;3.10;89.90
40085;DHT22;25786;51.504;7.344;2023-01-19T13:13:16;3.20;89.60
40085;DHT22;25786;51.504;7.344;2023-01-19T13:15:42;3.30;89.70
40085;DHT22;25786;51.504;7.344;2023-01-19T13:18:09;3.30;89.30
40085;DHT22;25786;51.504;7.344;2023-01-19T13:20:44;3.20;89.30
40085;DHT22;25786;51.504;7.344;2023-01-19T13:25:39;3.40;89.50
40085;DHT22;25786;51.504;7.344;2023-01-19T13:28:06;3.50;89.20
40085;DHT22;25786;51.504;7.344;2023-01-19T13:30:33;3.50;88.80
40085;DHT22;25786;51.504;7.344;2023-01-19T13:33:02;3.40;88.60
40085;DHT22;25786;51.504;7.344;2023-01-19T13:35:29;3.40;88.90
40085;DHT22;25786;51.504;7.344;2023-01-19T13:37:54;3.30;88.90
40085;DHT22;25786;51.504;7.344;2023-01-19T13:40:23;3.40;88.90
40085;DHT22;25786;51.504;7.344;2023-01-19T13:42:50;3.50;88.70
40085;DHT22;25786;51.504;7.344;2023-01-19T13:45:20;3.50;88.70
40085;DHT22;25786;51.504;7.344;2023-01-19T13:47:48;3.60;88.80
40085;DHT22;25786;51.504;7.344;2023-01-19T13:50:17;3.60;88.40
40085;DHT22;25786;51.504;7.344;2023-01-19T13:52:43;3.50;88.70
40085;DHT22;25786;51.504;7.344;2023-01-19T13:55:13;3.50;88.80
40085;DHT22;25786;51.504;7.344;2023-01-19T13:57:40;3.40;88.70
40085;DHT22;25786;51.504;7.344;2023-01-19T14:02:39;3.40;88.90
40085;DHT22;25786;51.504;7.344;2023-01-19T14:05:11;3.40;88.50
40085;DHT22;25786;51.504;7.344;2023-01-19T14:07:37;3.30;88.90
40085;DHT22;25786;51.504;7.344;2023-01-19T14:10:03;3.40;88.90
40085;DHT22;25786;51.504;7.344;2023-01-19T14:12:28;3.40;88.90
40085;DHT22;25786;51.504;7.344;2023-01-19T14:14:56;3.40;88.80
40085;DHT22;25786;51.504;7.344;2023-01-19T14:17:23;3.30;88.60
40085;DHT22;25786;51.504;7.344;2023-01-19T14:19:49;3.30;88.40
40085;DHT22;25786;51.504;7.344;2023-01-19T14:22:15;3.30;88.90
40085;DHT22;25786;51.504;7.344;2023-01-19T14:24:40;3.30;88.60
40085;DHT22;25786;51.504;7.344;2023-01-19T14:27:15;3.30;88.60
40085;DHT22;25786;51.504;7.344;2023-01-19T14:29:43;3.20;88.60
40085;DHT22;25786;51.504;7.344;2023-01-19T14:32:17;3.20;88.80
40085;DHT22;25786;51.504;7.344;2023-01-19T14:37:32;3.20;88.70
40085;DHT22;25786;51.504;7.344;2023-01-19T14:45:17;3.30;88.00
40085;DHT22;25786;51.504;7.344;2023-01-19T14:47:43;3.30;87.90
40085;DHT22;25786;51.504;7.344;2023-01-19T14:52:41;3.30;88.20
40085;DHT22;25786;51.504;7.344;2023-01-19T14:58:09;3.30;88.40
40085;DHT22;25786;51.504;7.344;2023-01-19T15:00:35;3.30;88.20
40085;DHT22;25786;51.504;7.344;2023-01-19T15:03:01;3.30;88.30
40085;DHT22;25786;51.504;7.344;2023-01-19T15:05:26;3.30;88.00
40085;DHT22;25786;51.504;7.344;2023-01-19T15:07:52;3.30;88.20
40085;DHT22;25786;51.504;7.344;2023-01-19T15:10:21;3.30;88.00
40085;DHT22;25786;51.504;7.344;2023-01-19T15:12:47;3.20;88.30
40085;DHT22;25786;51.504;7.344;2023-01-19T15:15:14;3.30;88.20
40085;DHT22;25786;51.504;7.344;2023-01-19T15:17:42;3.20;88.30
40085;DHT22;25786;51.504;7.344;2023-01-19T15:20:15;3.20;88.20
40085;DHT22;25786;51.504;7.344;2023-01-19T15:22:43;3.20;88.10
40085;DHT22;25786;51.504;7.344;2023-01-19T15:25:11;3.30;88.40
40085;DHT22;25786;51.504;7.344;2023-01-19T15:27:36;3.30;88.60
40085;DHT22;25786;51.504;7.344;2023-01-19T15:30:02;3.30;87.90
40085;DHT22;25786;51.504;7.344;2023-01-19T15:32:27;3.30;87.80
40085;DHT22;25786;51.504;7.344;2023-01-19T15:34:53;3.30;87.60
40085;DHT22;25786;51.504;7.344;2023-01-19T15:37:18;3.30;87.30
40085;DHT22;25786;51.504;7.344;2023-01-19T15:39:43;3.30;87.60
40085;DHT22;25786;51.504;7.344;2023-01-19T15:42:11;3.20;87.40
40085;DHT22;25786;51.504;7.344;2023-01-19T15:44:37;3.10;87.60
40085;DHT22;25786;51.504;7.344;2023-01-19T15:47:02;3.10;87.80
40085;DHT22;25786;51.504;7.344;2023-01-19T15:49:28;3.00;88.00
40085;DHT22;25786;51.504;7.344;2023-01-19T15:51:55;3.00;88.00
40085;DHT22;25786;51.504;7.344;2023-01-19T15:54:20;3.00;88.30
40085;DHT22;25786;51.504;7.344;2023-01-19T15:56:45;3.00;88.00
40085;DHT22;25786;51.504;7.344;2023-01-19T15:59:11;2.90;88.20
40085;DHT22;25786;51.504;7.344;2023-01-19T16:01:36;2.90;88.20
40085;DHT22;25786;51.504;7.344;2023-01-19T16:04:04;2.90;88.10
40085;DHT22;25786;51.504;7.344;2023-01-19T16:06:30;2.90;88.00
40085;DHT22;25786;51.504;7.344;2023-01-19T16:08:56;2.80;88.30
40085;DHT22;25786;51.504;7.344;2023-01-19T16:11:28;2.80;88.40
40085;DHT22;25786;51.504;7.344;2023-01-19T16:13:54;2.80;88.50
40085;DHT22;25786;51.504;7.344;2023-01-19T16:16:20;2.70;88.40
40085;DHT22;25786;51.504;7.344;2023-01-19T16:18:46;2.60;88.60
40085;DHT22;25786;51.504;7.344;2023-01-19T16:21:12;2.60;88.70
40085;DHT22;25786;51.504;7.344;2023-01-19T16:23:37;2.70;88.70
40085;DHT22;25786;51.504;7.344;2023-01-19T16:26:04;2.70;88.70
40085;DHT22;25786;51.504;7.344;2023-01-19T16:28:32;2.70;88.40
40085;DHT22;25786;51.504;7.344;2023-01-19T16:30:57;2.60;88.40
40085;DHT22;25786;51.504;7.344;2023-01-19T16:33:23;2.60;88.40
40085;DHT22;25786;51.504;7.344;2023-01-19T16:35:48;2.70;88.30
40085;DHT22;25786;51.504;7.344;2023-01-19T16:38:14;2.70;87.90
40085;DHT22;25786;51.504;7.344;2023-01-19T16:40:41;2.60;87.80
40085;DHT22;25786;51.504;7.344;2023-01-19T16:43:07;2.60;87.90
40085;DHT22;25786;51.504;7.344;2023-01-19T16:45:32;2.60;87.60
40085;DHT22;25786;51.504;7.344;2023-01-19T16:47:58;2.50;87.40
40085;DHT22;25786;51.504;7.344;2023-01-19T16:50:23;2.40;87.60
40085;DHT22;25786;51.504;7.344;2023-01-19T16:52:49;2.50;87.70
40085;DHT22;25786;51.504;7.344;2023-01-19T16:55:14;2.50;87.70
40085;DHT22;25786;51.504;7.344;2023-01-19T16:57:41;2.40;87.90
40085;DHT22;25786;51.504;7.344;2023-01-19T17:00:07;2.30;87.60
40085;DHT22;25786;51.504;7.344;2023-01-19T17:02:34;2.30;87.60
40085;DHT22;25786;51.504;7.344;2023-01-19T17:04:59;2.30;87.70
40085;DHT22;25786;51.504;7.344;2023-01-19T17:07:25;2.30;87.60
40085;DHT22;25786;51.504;7.344;2023-01-19T17:09:51;2.30;87.70
40085;DHT22;25786;51.504;7.344;2023-01-19T17:12:17;2.40;87.90
40085;DHT22;25786;51.504;7.344;2023-01-19T17:14:42;2.40;87.90